createdAt,value
2017-11-04T00:02:16.652Z,5.89
2017-11-04T00:04:44.135Z,5.87
2017-11-04T00:07:11.631Z,5.88
2017-11-04T00:09:39.162Z,5.87
2017-11-04T00:12:06.740Z,5.90
2017-11-04T00:14:34.311Z,5.96
2017-11-04T00:17:01.859Z,6.01
2017-11-04T00:19:29.372Z,5.98
2017-11-04T00:21:56.898Z,5.96
2017-11-04T00:24:24.389Z,5.93
2017-11-04T00:26:51.886Z,5.93
2017-11-04T00:29:19.444Z,5.98
2017-11-04T00:31:47.182Z,5.95
2017-11-04T00:34:14.667Z,5.90
2017-11-04T00:36:42.333Z,5.89
2017-11-04T00:39:09.830Z,5.84
2017-11-04T00:41:37.352Z,5.81
2017-11-04T00:44:05.008Z,5.78
2017-11-04T00:46:32.497Z,5.78
2017-11-04T00:48:59.993Z,5.77
2017-11-04T00:51:27.520Z,5.78
2017-11-04T00:53:55.013Z,5.75
2017-11-04T00:56:22.529Z,5.72
2017-11-04T00:58:50.084Z,5.70
2017-11-04T01:01:17.577Z,5.67
2017-11-04T01:03:45.065Z,5.61
2017-11-04T01:06:12.604Z,5.58
2017-11-04T01:08:40.091Z,5.52
2017-11-04T01:11:07.661Z,5.47
2017-11-04T01:13:35.217Z,5.43
2017-11-04T01:16:02.704Z,5.43
2017-11-04T01:18:30.233Z,5.38
2017-11-04T01:20:57.747Z,5.39
2017-11-04T01:23:25.465Z,5.36
2017-11-04T01:25:52.961Z,5.33
2017-11-04T01:28:20.563Z,5.35
2017-11-04T01:30:48.079Z,5.36
2017-11-04T01:33:15.566Z,5.36
2017-11-04T01:35:43.074Z,5.39
2017-11-04T01:38:10.565Z,5.39
2017-11-04T01:40:38.059Z,5.37
2017-11-04T01:43:05.568Z,5.32
2017-11-04T01:45:33.058Z,5.31
2017-11-04T01:48:00.568Z,5.29
2017-11-04T01:50:28.193Z,5.29
2017-11-04T01:52:55.697Z,5.31
2017-11-04T01:55:23.215Z,5.31
2017-11-04T01:57:50.741Z,5.31
2017-11-04T02:00:18.238Z,5.28
2017-11-04T02:02:45.723Z,5.26
2017-11-04T02:05:13.360Z,5.25
2017-11-04T02:07:40.896Z,5.23
2017-11-04T02:10:08.440Z,5.18
2017-11-04T02:12:36.019Z,5.13
2017-11-04T02:15:03.516Z,5.07
2017-11-04T02:17:31.024Z,5.04
2017-11-04T02:22:32.503Z,5.07
2017-11-04T02:25:00.010Z,5.11
2017-11-04T02:27:27.515Z,5.10
2017-11-04T02:29:55.030Z,5.08
2017-11-04T02:32:22.576Z,5.07
2017-11-04T02:34:50.069Z,5.09
2017-11-04T02:37:17.594Z,5.16
2017-11-04T02:39:45.077Z,5.20
2017-11-04T02:42:12.567Z,5.19
2017-11-04T02:44:40.095Z,5.18
2017-11-04T02:47:07.590Z,5.17
2017-11-04T02:49:35.082Z,5.15
2017-11-04T02:52:02.807Z,5.14
2017-11-04T02:54:30.297Z,5.11
2017-11-04T02:56:57.785Z,5.08
2017-11-04T02:59:25.319Z,5.09
2017-11-04T03:01:52.808Z,5.10
2017-11-04T03:04:20.302Z,5.10
2017-11-04T03:06:47.850Z,5.06
2017-11-04T03:09:15.355Z,5.07
2017-11-04T03:11:42.877Z,5.05
2017-11-04T03:14:10.414Z,5.07
2017-11-04T03:16:37.908Z,5.06
2017-11-04T03:19:05.448Z,5.03
2017-11-04T03:21:32.973Z,5.05
2017-11-04T03:24:00.558Z,5.01
2017-11-04T03:26:28.053Z,4.99
2017-11-04T03:28:55.815Z,4.99
2017-11-04T03:31:23.322Z,4.98
2017-11-04T03:33:50.814Z,4.97
2017-11-04T03:36:18.359Z,5.00
2017-11-04T03:38:45.846Z,5.03
2017-11-04T03:41:13.344Z,5.02
2017-11-04T03:43:40.864Z,5.00
2017-11-04T03:46:08.355Z,5.02
2017-11-04T03:48:35.856Z,5.01
2017-11-04T03:51:03.394Z,5.01
2017-11-04T03:53:30.880Z,5.05
2017-11-04T03:55:58.443Z,5.10
2017-11-04T03:58:26.003Z,5.20
2017-11-04T04:00:53.490Z,5.28
2017-11-04T04:03:20.982Z,5.34
2017-11-04T04:05:48.501Z,5.38
2017-11-04T04:08:15.989Z,5.43
2017-11-04T04:10:43.489Z,5.48
2017-11-04T04:13:11.064Z,5.50
2017-11-04T04:15:38.562Z,5.55
2017-11-04T04:18:06.150Z,5.58
2017-11-04T04:20:33.684Z,5.62
2017-11-04T04:23:01.174Z,5.64
2017-11-04T04:25:28.662Z,5.64
2017-11-04T04:27:56.180Z,5.66
2017-11-04T04:30:23.667Z,5.62
2017-11-04T04:32:51.199Z,5.63
2017-11-04T04:35:18.737Z,5.70
2017-11-04T04:37:46.231Z,5.73
2017-11-04T04:40:13.716Z,5.80
2017-11-04T04:42:41.234Z,5.81
2017-11-04T04:45:08.725Z,5.78
2017-11-04T04:47:36.216Z,5.72
2017-11-04T04:50:03.740Z,5.63
2017-11-04T04:52:31.227Z,5.55
2017-11-04T04:54:58.725Z,5.45
2017-11-04T04:57:26.245Z,5.43
2017-11-04T04:59:53.737Z,5.36
2017-11-04T05:02:21.230Z,5.27
2017-11-04T05:04:48.747Z,5.16
2017-11-04T05:07:16.308Z,5.11
2017-11-04T05:09:43.789Z,5.07
2017-11-04T05:12:11.331Z,5.05
2017-11-04T05:14:38.828Z,5.01
2017-11-04T05:17:06.328Z,4.99
2017-11-04T05:19:33.940Z,5.00
2017-11-04T05:22:01.429Z,5.00
2017-11-04T05:24:28.928Z,4.95
2017-11-04T05:26:56.456Z,4.93
2017-11-04T05:29:23.947Z,4.90
2017-11-04T05:31:51.442Z,4.87
2017-11-04T05:34:19.075Z,4.84
2017-11-04T05:36:46.620Z,4.84
2017-11-04T05:39:14.115Z,4.81
2017-11-04T05:41:41.648Z,4.79
2017-11-04T05:44:09.145Z,4.78
2017-11-04T05:46:36.669Z,4.76
2017-11-04T05:49:04.156Z,4.76
2017-11-04T05:51:31.646Z,4.72
2017-11-04T05:53:59.167Z,4.69
2017-11-04T05:56:26.681Z,4.63
2017-11-04T05:58:54.185Z,4.61
2017-11-04T06:01:21.713Z,4.62
2017-11-04T06:03:49.251Z,4.62
2017-11-04T06:06:16.735Z,4.62
2017-11-04T06:08:44.252Z,4.66
2017-11-04T06:11:11.739Z,4.75
2017-11-04T06:13:39.227Z,4.85
2017-11-04T06:16:06.848Z,4.94
2017-11-04T06:18:34.337Z,4.97
2017-11-04T06:21:01.829Z,4.99
2017-11-04T06:23:29.365Z,5.04
2017-11-04T06:25:56.855Z,5.04
2017-11-04T06:28:24.436Z,5.07
2017-11-04T06:30:52.003Z,5.07
2017-11-04T06:33:19.488Z,5.07
2017-11-04T06:35:46.972Z,5.01
2017-11-04T06:38:14.492Z,4.96
2017-11-04T06:40:41.971Z,4.94
2017-11-04T06:43:09.455Z,4.91
2017-11-04T06:45:36.967Z,4.93
2017-11-04T06:48:04.495Z,4.90
2017-11-04T06:50:31.988Z,4.87
2017-11-04T06:52:59.484Z,4.92
2017-11-04T06:55:27.076Z,4.92
2017-11-04T06:57:54.560Z,4.95
2017-11-04T07:00:22.056Z,4.98
2017-11-04T07:02:49.661Z,5.00
2017-11-04T07:05:17.152Z,5.04
2017-11-04T07:07:44.667Z,5.06
2017-11-04T07:10:12.239Z,5.09
2017-11-04T07:12:39.731Z,5.09
2017-11-04T07:15:07.219Z,5.14
2017-11-04T07:17:34.748Z,5.15
2017-11-04T07:20:02.259Z,5.17
2017-11-04T07:22:29.748Z,5.20
2017-11-04T07:24:57.275Z,5.17
2017-11-04T07:27:24.765Z,5.21
2017-11-04T07:29:52.272Z,5.24
2017-11-04T07:32:19.848Z,5.29
2017-11-04T07:34:47.333Z,5.33
2017-11-04T07:37:14.825Z,5.33
2017-11-04T07:39:42.350Z,5.35
2017-11-04T07:42:09.838Z,5.36
2017-11-04T07:44:37.328Z,5.38
2017-11-04T07:47:04.878Z,5.41
2017-11-04T07:49:32.371Z,5.45
2017-11-04T07:51:59.883Z,5.43
2017-11-04T07:54:27.412Z,5.56
2017-11-04T07:56:54.903Z,5.68
2017-11-04T07:59:22.389Z,5.80
2017-11-04T08:01:49.920Z,6.00
2017-11-04T08:04:32.016Z,6.13
2017-11-04T08:06:59.535Z,6.25
2017-11-04T08:09:27.053Z,6.41
2017-11-04T08:11:54.614Z,6.48
2017-11-04T08:14:22.175Z,6.46
2017-11-04T08:16:49.748Z,6.54
2017-11-04T08:19:17.328Z,6.66
2017-11-04T08:21:44.882Z,6.80
2017-11-04T08:24:12.374Z,6.97
2017-11-04T08:26:39.883Z,7.08
2017-11-04T08:29:07.398Z,7.23
2017-11-04T08:31:34.912Z,7.31
2017-11-04T08:34:02.431Z,7.36
2017-11-04T08:36:29.915Z,7.55
2017-11-04T08:38:57.405Z,7.73
2017-11-04T08:41:25.032Z,7.81
2017-11-04T08:43:52.514Z,7.78
2017-11-04T08:46:20.004Z,7.86
2017-11-04T08:48:47.544Z,7.89
2017-11-04T08:51:15.036Z,7.74
2017-11-04T08:53:42.524Z,7.71
2017-11-04T08:56:10.053Z,7.72
2017-11-04T08:58:37.540Z,7.86
2017-11-04T09:01:05.041Z,7.95
2017-11-04T09:03:33.333Z,7.95
2017-11-04T09:06:00.820Z,7.89
2017-11-04T09:08:28.451Z,7.92
2017-11-04T09:10:56.047Z,7.93
2017-11-04T09:13:23.599Z,8.03
2017-11-04T09:15:51.116Z,8.05
2017-11-04T09:18:18.646Z,8.09
2017-11-04T09:20:46.176Z,8.12
2017-11-04T09:23:13.750Z,8.20
2017-11-04T09:25:41.245Z,8.22
2017-11-04T09:28:08.794Z,8.31
2017-11-04T09:30:36.280Z,8.32
2017-11-04T09:33:03.801Z,8.35
2017-11-04T09:35:31.334Z,8.40
2017-11-04T09:37:58.899Z,8.44
2017-11-04T09:40:26.387Z,8.53
2017-11-04T09:42:53.914Z,8.63
2017-11-04T09:45:21.492Z,8.70
2017-11-04T09:47:48.980Z,8.72
2017-11-04T09:50:16.506Z,8.75
2017-11-04T09:52:44.014Z,8.84
2017-11-04T09:55:11.496Z,9.06
2017-11-04T09:57:39.166Z,9.24
2017-11-04T10:00:06.652Z,9.24
2017-11-04T10:02:34.144Z,9.18
2017-11-04T10:05:01.689Z,9.01
2017-11-04T10:07:29.200Z,8.97
2017-11-04T10:09:56.688Z,8.93
2017-11-04T10:12:24.327Z,8.89
2017-11-04T10:14:51.881Z,8.97
2017-11-04T10:17:19.376Z,9.03
2017-11-04T10:19:46.906Z,9.06
2017-11-04T10:22:14.478Z,8.98
2017-11-04T10:24:41.979Z,9.04
2017-11-04T10:27:09.494Z,9.04
2017-11-04T10:29:37.035Z,9.13
2017-11-04T10:32:04.528Z,9.13
2017-11-04T10:34:32.016Z,9.12
2017-11-04T10:36:59.547Z,9.21
2017-11-04T10:39:27.043Z,9.33
2017-11-04T10:41:54.545Z,9.42
2017-11-04T10:44:22.080Z,9.56
2017-11-04T10:46:49.591Z,9.69
2017-11-04T10:49:17.115Z,9.78
2017-11-04T10:51:44.656Z,9.78
2017-11-04T10:54:12.152Z,9.69
2017-11-04T10:56:39.654Z,9.63
2017-11-04T10:59:07.187Z,9.75
2017-11-04T11:01:34.788Z,9.85
2017-11-04T11:04:02.296Z,9.76
2017-11-04T11:06:30.014Z,9.71
2017-11-04T11:08:57.568Z,9.71
2017-11-04T11:11:25.072Z,9.78
2017-11-04T11:13:52.597Z,9.89
2017-11-04T11:16:20.148Z,10.16
2017-11-04T11:18:47.640Z,10.27
2017-11-04T11:21:15.157Z,10.33
2017-11-04T11:23:42.668Z,10.29
2017-11-04T11:26:10.183Z,10.32
2017-11-04T11:28:37.723Z,10.20
2017-11-04T11:31:05.226Z,10.27
2017-11-04T11:33:32.727Z,10.45
2017-11-04T11:36:00.259Z,10.68
2017-11-04T11:38:27.752Z,10.94
2017-11-04T11:40:55.332Z,10.91
2017-11-04T11:43:22.916Z,10.80
2017-11-04T11:45:50.463Z,10.74
2017-11-04T11:48:17.958Z,10.59
2017-11-04T11:50:45.499Z,10.57
2017-11-04T11:53:12.993Z,10.68
2017-11-04T11:55:40.493Z,10.75
2017-11-04T11:58:08.043Z,10.87
2017-11-04T12:00:35.535Z,10.91
2017-11-04T12:03:03.156Z,10.93
2017-11-04T12:05:30.719Z,10.87
2017-11-04T12:07:58.279Z,10.98
2017-11-04T12:10:25.801Z,11.02
2017-11-04T12:12:53.299Z,11.03
2017-11-04T12:15:20.831Z,11.02
2017-11-04T12:17:48.403Z,11.01
2017-11-04T12:20:15.976Z,11.12
2017-11-04T12:22:43.751Z,11.17
2017-11-04T12:25:11.296Z,11.25
2017-11-04T12:27:38.787Z,11.36
2017-11-04T12:30:06.331Z,11.35
2017-11-04T12:32:33.866Z,11.44
2017-11-04T12:35:01.357Z,11.40
2017-11-04T12:37:28.885Z,11.38
2017-11-04T12:39:56.377Z,11.27
2017-11-04T12:42:23.920Z,11.20
2017-11-04T12:44:51.474Z,11.33
2017-11-04T12:47:18.974Z,11.42
2017-11-04T12:49:46.483Z,11.48
2017-11-04T12:52:14.140Z,11.53
2017-11-04T12:54:41.658Z,11.54
2017-11-04T12:57:09.153Z,11.46
2017-11-04T12:59:36.720Z,11.49
2017-11-04T13:02:04.259Z,11.60
2017-11-04T13:04:31.765Z,11.73
2017-11-04T13:06:59.262Z,11.88
2017-11-04T13:09:26.805Z,11.83
2017-11-04T13:11:54.319Z,11.62
2017-11-04T13:14:21.871Z,11.47
2017-11-04T13:16:49.412Z,11.48
2017-11-04T13:19:16.907Z,11.61
2017-11-04T13:21:44.406Z,11.63
2017-11-04T13:24:11.951Z,11.58
2017-11-04T13:26:39.441Z,11.64
2017-11-04T13:29:07.014Z,11.60
2017-11-04T13:31:34.531Z,11.60
2017-11-04T13:34:02.037Z,11.55
2017-11-04T13:36:29.599Z,11.55
2017-11-04T13:38:57.133Z,11.48
2017-11-04T13:41:24.627Z,11.46
2017-11-04T13:43:52.116Z,11.45
2017-11-04T13:46:19.656Z,11.37
2017-11-04T13:48:47.204Z,11.41
2017-11-04T13:51:14.743Z,11.44
2017-11-04T13:53:42.410Z,11.50
2017-11-04T13:56:09.975Z,11.56
2017-11-04T13:58:37.486Z,11.60
2017-11-04T14:01:05.201Z,11.60
2017-11-04T14:03:32.752Z,11.59
2017-11-04T14:06:00.248Z,11.60
2017-11-04T14:08:27.887Z,11.60
2017-11-04T14:10:55.397Z,11.53
2017-11-04T14:13:22.899Z,11.49
2017-11-04T14:15:50.431Z,11.48
2017-11-04T14:18:18.000Z,11.46
2017-11-04T14:20:45.502Z,11.41
2017-11-04T14:23:13.115Z,11.42
2017-11-04T14:25:40.648Z,11.39
2017-11-04T14:28:08.235Z,11.37
2017-11-04T14:30:35.730Z,11.36
2017-11-04T14:33:03.321Z,11.34
2017-11-04T14:35:30.826Z,11.32
2017-11-04T14:37:58.318Z,11.28
2017-11-04T14:40:26.032Z,11.25
2017-11-04T14:42:53.533Z,11.23
2017-11-04T14:45:21.033Z,11.19
2017-11-04T14:47:48.560Z,11.12
2017-11-04T14:50:16.081Z,11.06
2017-11-04T14:52:43.581Z,11.01
2017-11-04T14:55:11.124Z,10.95
2017-11-04T14:57:38.657Z,10.94
2017-11-04T15:00:06.225Z,10.85
2017-11-04T15:02:33.761Z,10.80
2017-11-04T15:05:01.302Z,10.74
2017-11-04T15:07:28.897Z,10.71
2017-11-04T15:09:56.392Z,10.67
2017-11-04T15:12:23.991Z,10.65
2017-11-04T15:14:51.546Z,10.61
2017-11-04T15:17:19.108Z,10.59
2017-11-04T15:19:46.639Z,10.57
2017-11-04T15:22:14.136Z,10.54
2017-11-04T15:24:41.634Z,10.51
2017-11-04T15:27:09.155Z,10.45
2017-11-04T15:29:36.676Z,10.42
2017-11-04T15:32:04.178Z,10.42
2017-11-04T15:34:31.663Z,10.39
2017-11-04T15:36:59.266Z,10.39
2017-11-04T15:39:26.768Z,10.37
2017-11-04T15:41:54.264Z,10.34
2017-11-04T15:44:21.803Z,10.36
2017-11-04T15:46:49.297Z,10.33
2017-11-04T15:49:16.799Z,10.31
2017-11-04T15:51:44.532Z,10.27
2017-11-04T15:54:12.111Z,10.27
2017-11-04T15:56:39.604Z,10.28
2017-11-04T15:59:07.147Z,10.26
2017-11-04T16:01:34.638Z,10.26
2017-11-04T16:04:02.233Z,10.26
2017-11-04T16:06:29.743Z,10.25
2017-11-04T16:08:57.391Z,10.23
2017-11-04T16:11:24.886Z,10.23
2017-11-04T16:13:52.390Z,10.19
2017-11-04T16:16:20.132Z,10.18
2017-11-04T16:18:47.622Z,10.18
2017-11-04T16:21:15.112Z,10.21
2017-11-04T16:23:42.656Z,10.16
2017-11-04T16:26:10.162Z,10.13
2017-11-04T16:28:37.718Z,10.09
2017-11-04T16:31:05.296Z,10.06
2017-11-04T16:33:32.827Z,9.99
2017-11-04T16:36:00.397Z,9.97
2017-11-04T16:38:27.899Z,9.98
2017-11-04T16:40:55.515Z,10.00
2017-11-04T16:43:23.016Z,10.00
2017-11-04T16:45:50.504Z,10.01
2017-11-04T16:48:18.036Z,10.01
2017-11-04T16:50:45.526Z,10.04
2017-11-04T16:53:13.022Z,10.04
2017-11-04T16:55:40.544Z,10.05
2017-11-04T16:58:08.129Z,10.07
2017-11-04T17:00:35.629Z,10.18
2017-11-04T17:03:03.149Z,10.18
2017-11-04T17:05:30.652Z,10.21
2017-11-04T17:07:58.264Z,10.22
2017-11-04T17:10:25.761Z,10.17
2017-11-04T17:12:53.266Z,10.17
2017-11-04T17:15:20.832Z,10.10
2017-11-04T17:17:48.334Z,10.08
2017-11-04T17:20:16.158Z,10.08
2017-11-04T17:22:43.669Z,10.07
2017-11-04T17:25:11.164Z,10.03
2017-11-04T17:27:38.836Z,9.98
2017-11-04T17:30:06.328Z,9.99
2017-11-04T17:32:33.861Z,9.97
2017-11-04T17:35:01.387Z,9.95
2017-11-04T17:37:29.075Z,9.95
2017-11-04T17:39:56.572Z,9.92
2017-11-04T17:42:24.054Z,9.89
2017-11-04T17:44:51.592Z,9.88
2017-11-04T17:47:19.088Z,9.85
2017-11-04T17:49:46.663Z,9.79
2017-11-04T17:52:14.196Z,9.79
2017-11-04T17:54:41.690Z,9.75
2017-11-04T17:57:09.193Z,9.74
2017-11-04T17:59:36.722Z,9.70
2017-11-04T18:02:04.236Z,9.71
2017-11-04T18:04:31.731Z,9.67
2017-11-04T18:06:59.472Z,9.65
2017-11-04T18:09:26.968Z,9.60
2017-11-04T18:11:54.457Z,9.57
2017-11-04T18:14:21.983Z,9.53
2017-11-04T18:16:49.508Z,9.52
2017-11-04T18:19:17.015Z,9.53
2017-11-04T18:21:44.551Z,9.51
2017-11-04T18:24:12.046Z,9.50
2017-11-04T18:26:39.549Z,9.49
2017-11-04T18:29:07.114Z,9.50
2017-11-04T18:31:34.609Z,9.50
2017-11-04T18:34:02.109Z,9.49
2017-11-04T18:36:29.758Z,9.48
2017-11-04T18:38:57.336Z,9.48
2017-11-04T18:41:24.832Z,9.50
2017-11-04T18:43:52.371Z,9.52
2017-11-04T18:46:19.868Z,9.53
2017-11-04T18:48:47.357Z,9.53
2017-11-04T18:51:14.884Z,9.53
2017-11-04T18:53:42.367Z,9.51
2017-11-04T18:56:09.858Z,9.48
2017-11-04T18:58:37.387Z,9.47
2017-11-04T19:01:04.877Z,9.44
2017-11-04T19:03:32.364Z,9.41
2017-11-04T19:05:59.936Z,9.42
2017-11-04T19:08:27.536Z,9.44
2017-11-04T19:10:55.032Z,9.44
2017-11-04T19:13:22.548Z,9.43
2017-11-04T19:15:50.077Z,9.38
2017-11-04T19:18:17.572Z,9.37
2017-11-04T19:20:45.095Z,9.33
2017-11-04T19:23:12.619Z,9.29
2017-11-04T19:25:40.163Z,9.25
2017-11-04T19:28:07.679Z,9.25
2017-11-04T19:30:35.282Z,9.27
2017-11-04T19:33:03.031Z,9.31
2017-11-04T19:35:30.525Z,9.34
2017-11-04T19:37:58.031Z,9.34
2017-11-04T19:40:25.606Z,9.32
2017-11-04T19:42:53.099Z,9.32
2017-11-04T19:45:20.586Z,9.32
2017-11-04T19:47:48.136Z,9.27
2017-11-04T19:50:15.628Z,9.27
2017-11-04T19:52:43.149Z,9.24
2017-11-04T19:55:10.684Z,9.21
2017-11-04T19:57:38.186Z,9.15
2017-11-04T20:00:05.677Z,9.11
2017-11-04T20:02:33.211Z,9.07
2017-11-04T20:05:00.802Z,9.04
2017-11-04T20:07:28.296Z,9.03
2017-11-04T20:09:55.819Z,9.02
2017-11-04T20:12:23.365Z,8.98
2017-11-04T20:14:50.894Z,8.96
2017-11-04T20:17:18.400Z,8.94
2017-11-04T20:19:46.862Z,8.91
2017-11-04T20:22:14.391Z,8.91
2017-11-04T20:24:41.885Z,8.88
2017-11-04T20:27:09.429Z,8.84
2017-11-04T20:29:37.115Z,8.83
2017-11-04T20:32:04.604Z,8.81
2017-11-04T20:34:32.104Z,8.81
2017-11-04T20:36:59.624Z,8.78
2017-11-04T20:39:27.120Z,8.76
2017-11-04T20:41:54.668Z,8.71
2017-11-04T20:44:22.155Z,8.70
2017-11-04T20:46:49.643Z,8.69
2017-11-04T20:49:17.184Z,8.64
2017-11-04T20:51:44.676Z,8.62
2017-11-04T20:54:12.184Z,8.62
2017-11-04T20:56:39.961Z,8.64
2017-11-04T20:59:07.444Z,8.66
2017-11-04T21:01:34.940Z,8.64
2017-11-04T21:04:02.500Z,8.61
2017-11-04T21:06:29.989Z,8.58
2017-11-04T21:08:57.484Z,8.56
2017-11-04T21:11:25.041Z,8.58
2017-11-04T21:13:52.568Z,8.58
2017-11-04T21:16:20.064Z,8.56
2017-11-04T21:18:47.686Z,8.58
2017-11-04T21:21:15.227Z,8.61
2017-11-04T21:23:42.719Z,8.68
2017-11-04T21:26:10.263Z,8.70
2017-11-04T21:28:37.773Z,8.71
2017-11-04T21:31:05.308Z,8.71
2017-11-04T21:33:32.801Z,8.73
2017-11-04T21:36:00.300Z,8.74
2017-11-04T21:38:27.843Z,8.75
2017-11-04T21:40:55.330Z,8.79
2017-11-04T21:43:22.829Z,8.79
2017-11-04T21:45:50.519Z,8.76
2017-11-04T21:48:18.010Z,8.77
2017-11-04T21:50:45.502Z,8.78
2017-11-04T21:53:13.035Z,8.82
2017-11-04T21:55:40.545Z,8.84
2017-11-04T21:58:08.043Z,8.88
2017-11-04T22:00:35.613Z,8.92
2017-11-04T22:03:03.148Z,8.93
2017-11-04T22:05:30.630Z,8.95
2017-11-04T22:07:58.296Z,8.93
2017-11-04T22:10:25.903Z,8.92
2017-11-04T22:12:53.392Z,8.89
2017-11-04T22:15:20.923Z,8.88
2017-11-04T22:17:48.418Z,8.87
2017-11-04T22:20:15.911Z,8.87
2017-11-04T22:22:43.546Z,8.85
2017-11-04T22:25:11.030Z,8.89
2017-11-04T22:27:38.621Z,8.91
2017-11-04T22:30:06.145Z,8.90
2017-11-04T22:32:33.633Z,8.89
2017-11-04T22:35:01.202Z,8.87
2017-11-04T22:37:28.857Z,8.87
2017-11-04T22:39:56.364Z,8.87
2017-11-04T22:42:23.848Z,8.86
2017-11-04T22:44:51.434Z,8.82
2017-11-04T22:47:18.938Z,8.75
2017-11-04T22:49:46.542Z,8.73
2017-11-04T22:52:14.090Z,8.70
2017-11-04T22:54:41.678Z,8.67
2017-11-04T22:57:09.240Z,8.63
2017-11-04T22:59:36.810Z,8.61
2017-11-04T23:02:04.459Z,8.59
2017-11-04T23:04:31.951Z,8.59
2017-11-04T23:06:59.441Z,8.57
2017-11-04T23:09:26.979Z,8.59
2017-11-04T23:11:54.465Z,8.58
2017-11-04T23:14:21.955Z,8.59
2017-11-04T23:16:49.520Z,8.60
2017-11-04T23:19:17.082Z,8.61
2017-11-04T23:21:44.589Z,8.60
2017-11-04T23:24:12.115Z,8.60
2017-11-04T23:26:39.604Z,8.59
2017-11-04T23:29:07.093Z,8.61
2017-11-04T23:31:34.671Z,8.62
2017-11-04T23:34:02.161Z,8.59
2017-11-04T23:36:29.792Z,8.63
2017-11-04T23:38:57.277Z,8.66
2017-11-04T23:41:24.762Z,8.72
2017-11-04T23:43:52.297Z,8.77
2017-11-04T23:46:19.888Z,8.77
2017-11-04T23:48:47.386Z,8.77
2017-11-04T23:51:14.944Z,8.80
2017-11-04T23:53:42.476Z,8.84
2017-11-04T23:56:10.041Z,8.83
2017-11-04T23:58:37.697Z,8.83
